sensor_id;sensor_type;location;lat;lon;timestamp;P1;durP1;ratioP1;P2;durP2;ratioP2
13366;SDS011;6752;52.612;13.630;2024-01-06T00:01:29;35.10;;;25.10;;
13366;SDS011;6752;52.612;13.630;2024-01-06T00:06:35;37.47;;;25.03;;
13366;SDS011;6752;52.612;13.630;2024-01-06T00:11:34;35.57;;;25.33;;
13366;SDS011;6752;52.612;13.630;2024-01-06T00:16:36;32.83;;;23.97;;
13366;SDS011;6752;52.612;13.630;2024-01-06T00:21:39;33.77;;;23.77;;
13366;SDS011;6752;52.612;13.630;2024-01-06T00:26:41;35.95;;;30.33;;
13366;SDS011;6752;52.612;13.630;2024-01-06T00:31:50;31.70;;;23.63;;
13366;SDS011;6752;52.612;13.630;2024-01-06T00:36:55;38.67;;;26.53;;
13366;SDS011;6752;52.612;13.630;2024-01-06T00:41:58;32.57;;;23.40;;
13366;SDS011;6752;52.612;13.630;2024-01-06T00:47:00;32.90;;;23.40;;
13366;SDS011;6752;52.612;13.630;2024-01-06T00:52:03;30.30;;;21.77;;
13366;SDS011;6752;52.612;13.630;2024-01-06T00:57:05;36.77;;;25.13;;
13366;SDS011;6752;52.612;13.630;2024-01-06T01:02:07;33.47;;;23.40;;
13366;SDS011;6752;52.612;13.630;2024-01-06T01:07:10;33.77;;;24.13;;
13366;SDS011;6752;52.612;13.630;2024-01-06T01:12:12;34.20;;;24.73;;
13366;SDS011;6752;52.612;13.630;2024-01-06T01:17:14;34.03;;;23.83;;
13366;SDS011;6752;52.612;13.630;2024-01-06T01:22:17;33.97;;;23.83;;
13366;SDS011;6752;52.612;13.630;2024-01-06T01:27:19;36.00;;;24.97;;
13366;SDS011;6752;52.612;13.630;2024-01-06T01:32:21;34.07;;;23.60;;
13366;SDS011;6752;52.612;13.630;2024-01-06T01:37:24;35.57;;;24.53;;
13366;SDS011;6752;52.612;13.630;2024-01-06T01:42:26;38.23;;;25.77;;
13366;SDS011;6752;52.612;13.630;2024-01-06T01:47:29;37.67;;;25.27;;
13366;SDS011;6752;52.612;13.630;2024-01-06T01:52:31;40.20;;;25.53;;
13366;SDS011;6752;52.612;13.630;2024-01-06T01:57:33;38.10;;;25.83;;
13366;SDS011;6752;52.612;13.630;2024-01-06T02:02:36;39.63;;;26.67;;
13366;SDS011;6752;52.612;13.630;2024-01-06T02:07:38;35.40;;;24.47;;
13366;SDS011;6752;52.612;13.630;2024-01-06T02:12:40;39.97;;;26.00;;
13366;SDS011;6752;52.612;13.630;2024-01-06T02:17:43;38.10;;;31.10;;
13366;SDS011;6752;52.612;13.630;2024-01-06T02:22:46;38.93;;;26.57;;
13366;SDS011;6752;52.612;13.630;2024-01-06T02:27:47;32.93;;;23.63;;
13366;SDS011;6752;52.612;13.630;2024-01-06T02:32:50;35.83;;;24.47;;
13366;SDS011;6752;52.612;13.630;2024-01-06T02:37:52;40.87;;;25.70;;
13366;SDS011;6752;52.612;13.630;2024-01-06T02:42:55;36.47;;;24.23;;
13366;SDS011;6752;52.612;13.630;2024-01-06T02:47:57;40.27;;;26.27;;
13366;SDS011;6752;52.612;13.630;2024-01-06T02:52:59;38.53;;;24.67;;
13366;SDS011;6752;52.612;13.630;2024-01-06T02:58:02;38.58;;;31.35;;
13366;SDS011;6752;52.612;13.630;2024-01-06T03:03:04;35.40;;;23.97;;
13366;SDS011;6752;52.612;13.630;2024-01-06T03:08:06;37.47;;;24.20;;
13366;SDS011;6752;52.612;13.630;2024-01-06T03:13:09;39.30;;;25.67;;
13366;SDS011;6752;52.612;13.630;2024-01-06T03:18:11;40.73;;;25.83;;
13366;SDS011;6752;52.612;13.630;2024-01-06T03:23:13;45.10;;;26.80;;
13366;SDS011;6752;52.612;13.630;2024-01-06T03:28:16;42.07;;;26.70;;
13366;SDS011;6752;52.612;13.630;2024-01-06T03:33:18;38.77;;;25.07;;
13366;SDS011;6752;52.612;13.630;2024-01-06T03:38:21;40.87;;;24.90;;
13366;SDS011;6752;52.612;13.630;2024-01-06T03:43:23;38.97;;;25.73;;
13366;SDS011;6752;52.612;13.630;2024-01-06T03:48:25;41.07;;;26.43;;
13366;SDS011;6752;52.612;13.630;2024-01-06T03:53:28;41.53;;;26.70;;
13366;SDS011;6752;52.612;13.630;2024-01-06T03:58:30;39.53;;;25.97;;
13366;SDS011;6752;52.612;13.630;2024-01-06T04:03:32;43.63;;;26.47;;
13366;SDS011;6752;52.612;13.630;2024-01-06T04:08:39;42.00;;;24.97;;
13366;SDS011;6752;52.612;13.630;2024-01-06T04:13:40;39.67;;;26.20;;
13366;SDS011;6752;52.612;13.630;2024-01-06T04:18:42;37.83;;;25.03;;
13366;SDS011;6752;52.612;13.630;2024-01-06T04:23:45;37.13;;;25.67;;
13366;SDS011;6752;52.612;13.630;2024-01-06T04:28:47;43.60;;;26.93;;
13366;SDS011;6752;52.612;13.630;2024-01-06T04:33:49;42.90;;;26.57;;
13366;SDS011;6752;52.612;13.630;2024-01-06T04:38:52;42.80;;;26.63;;
13366;SDS011;6752;52.612;13.630;2024-01-06T04:43:54;44.95;;;34.05;;
13366;SDS011;6752;52.612;13.630;2024-01-06T04:48:57;43.33;;;27.03;;
13366;SDS011;6752;52.612;13.630;2024-01-06T04:53:59;36.57;;;23.57;;
13366;SDS011;6752;52.612;13.630;2024-01-06T04:59:01;42.97;;;26.33;;
13366;SDS011;6752;52.612;13.630;2024-01-06T05:04:04;39.33;;;25.63;;
13366;SDS011;6752;52.612;13.630;2024-01-06T05:09:06;35.60;;;23.90;;
13366;SDS011;6752;52.612;13.630;2024-01-06T05:14:08;40.97;;;23.77;;
13366;SDS011;6752;52.612;13.630;2024-01-06T05:19:11;37.03;;;23.93;;
13366;SDS011;6752;52.612;13.630;2024-01-06T05:24:13;38.00;;;24.23;;
13366;SDS011;6752;52.612;13.630;2024-01-06T05:29:15;40.30;;;25.63;;
13366;SDS011;6752;52.612;13.630;2024-01-06T05:34:18;42.23;;;26.83;;
13366;SDS011;6752;52.612;13.630;2024-01-06T05:39:20;39.13;;;24.47;;
13366;SDS011;6752;52.612;13.630;2024-01-06T05:44:23;43.25;;;32.60;;
13366;SDS011;6752;52.612;13.630;2024-01-06T05:49:25;39.17;;;25.53;;
13366;SDS011;6752;52.612;13.630;2024-01-06T05:54:27;40.33;;;30.88;;
13366;SDS011;6752;52.612;13.630;2024-01-06T05:59:32;43.43;;;26.87;;
13366;SDS011;6752;52.612;13.630;2024-01-06T06:04:32;37.40;;;22.27;;
13366;SDS011;6752;52.612;13.630;2024-01-06T06:09:34;36.00;;;22.43;;
13366;SDS011;6752;52.612;13.630;2024-01-06T06:14:37;41.23;;;24.80;;
13366;SDS011;6752;52.612;13.630;2024-01-06T06:19:40;38.07;;;22.80;;
13366;SDS011;6752;52.612;13.630;2024-01-06T06:24:42;42.63;;;24.23;;
13366;SDS011;6752;52.612;13.630;2024-01-06T06:29:45;45.50;;;26.10;;
13366;SDS011;6752;52.612;13.630;2024-01-06T06:34:47;43.90;;;25.63;;
13366;SDS011;6752;52.612;13.630;2024-01-06T06:39:50;42.40;;;25.70;;
13366;SDS011;6752;52.612;13.630;2024-01-06T06:44:52;44.00;;;26.37;;
13366;SDS011;6752;52.612;13.630;2024-01-06T06:49:54;48.47;;;26.43;;
13366;SDS011;6752;52.612;13.630;2024-01-06T06:54:57;43.90;;;25.37;;
13366;SDS011;6752;52.612;13.630;2024-01-06T06:59:59;39.73;;;24.50;;
13366;SDS011;6752;52.612;13.630;2024-01-06T07:05:04;39.60;;;30.80;;
13366;SDS011;6752;52.612;13.630;2024-01-06T07:10:07;37.43;;;24.43;;
13366;SDS011;6752;52.612;13.630;2024-01-06T07:15:09;44.13;;;26.57;;
13366;SDS011;6752;52.612;13.630;2024-01-06T07:20:11;38.73;;;23.27;;
13366;SDS011;6752;52.612;13.630;2024-01-06T07:25:14;36.37;;;24.57;;
13366;SDS011;6752;52.612;13.630;2024-01-06T07:30:16;45.20;;;32.03;;
13366;SDS011;6752;52.612;13.630;2024-01-06T07:35:19;45.03;;;26.27;;
13366;SDS011;6752;52.612;13.630;2024-01-06T07:40:21;40.90;;;23.83;;
13366;SDS011;6752;52.612;13.630;2024-01-06T07:45:23;45.30;;;25.80;;
13366;SDS011;6752;52.612;13.630;2024-01-06T07:50:26;38.53;;;29.27;;
13366;SDS011;6752;52.612;13.630;2024-01-06T07:55:28;41.63;;;25.10;;
13366;SDS011;6752;52.612;13.630;2024-01-06T08:00:30;47.10;;;26.17;;
13366;SDS011;6752;52.612;13.630;2024-01-06T08:05:33;37.80;;;23.23;;
13366;SDS011;6752;52.612;13.630;2024-01-06T08:10:35;50.53;;;26.97;;
13366;SDS011;6752;52.612;13.630;2024-01-06T08:15:37;37.50;;;22.90;;
13366;SDS011;6752;52.612;13.630;2024-01-06T08:20:40;50.80;;;25.67;;
13366;SDS011;6752;52.612;13.630;2024-01-06T08:25:42;48.23;;;26.77;;
13366;SDS011;6752;52.612;13.630;2024-01-06T08:30:45;45.93;;;25.50;;
13366;SDS011;6752;52.612;13.630;2024-01-06T08:35:47;48.03;;;27.00;;
13366;SDS011;6752;52.612;13.630;2024-01-06T08:40:49;47.37;;;26.40;;
13366;SDS011;6752;52.612;13.630;2024-01-06T08:45:52;44.13;;;26.27;;
13366;SDS011;6752;52.612;13.630;2024-01-06T08:50:54;42.08;;;31.55;;
13366;SDS011;6752;52.612;13.630;2024-01-06T08:55:56;40.57;;;26.30;;
13366;SDS011;6752;52.612;13.630;2024-01-06T09:00:59;37.47;;;23.63;;
13366;SDS011;6752;52.612;13.630;2024-01-06T09:06:01;41.30;;;24.20;;
13366;SDS011;6752;52.612;13.630;2024-01-06T09:11:04;36.50;;;23.23;;
13366;SDS011;6752;52.612;13.630;2024-01-06T09:16:06;40.60;;;25.90;;
13366;SDS011;6752;52.612;13.630;2024-01-06T09:21:08;40.40;;;24.57;;
13366;SDS011;6752;52.612;13.630;2024-01-06T09:26:11;39.37;;;24.40;;
13366;SDS011;6752;52.612;13.630;2024-01-06T09:31:13;36.90;;;23.67;;
13366;SDS011;6752;52.612;13.630;2024-01-06T09:36:16;31.93;;;22.07;;
13366;SDS011;6752;52.612;13.630;2024-01-06T09:41:18;34.80;;;22.37;;
13366;SDS011;6752;52.612;13.630;2024-01-06T09:46:24;34.80;;;23.27;;
13366;SDS011;6752;52.612;13.630;2024-01-06T09:51:25;34.60;;;22.67;;
13366;SDS011;6752;52.612;13.630;2024-01-06T09:56:30;40.73;;;25.53;;
13366;SDS011;6752;52.612;13.630;2024-01-06T10:01:33;31.73;;;22.20;;
13366;SDS011;6752;52.612;13.630;2024-01-06T10:06:35;37.20;;;24.17;;
13366;SDS011;6752;52.612;13.630;2024-01-06T10:11:40;37.83;;;24.90;;
13366;SDS011;6752;52.612;13.630;2024-01-06T10:16:43;38.47;;;24.43;;
13366;SDS011;6752;52.612;13.630;2024-01-06T10:21:45;32.90;;;23.43;;
13366;SDS011;6752;52.612;13.630;2024-01-06T10:26:47;35.33;;;23.47;;
13366;SDS011;6752;52.612;13.630;2024-01-06T10:31:50;35.27;;;23.80;;
13366;SDS011;6752;52.612;13.630;2024-01-06T10:36:52;38.17;;;24.60;;
13366;SDS011;6752;52.612;13.630;2024-01-06T10:41:55;31.40;;;22.87;;
13366;SDS011;6752;52.612;13.630;2024-01-06T10:46:57;33.47;;;28.30;;
13366;SDS011;6752;52.612;13.630;2024-01-06T10:51:59;31.20;;;22.47;;
13366;SDS011;6752;52.612;13.630;2024-01-06T10:57:02;30.80;;;22.30;;
13366;SDS011;6752;52.612;13.630;2024-01-06T11:02:04;33.87;;;22.87;;
13366;SDS011;6752;52.612;13.630;2024-01-06T11:07:06;32.97;;;22.17;;
13366;SDS011;6752;52.612;13.630;2024-01-06T11:12:09;35.10;;;22.63;;
13366;SDS011;6752;52.612;13.630;2024-01-06T11:17:11;32.73;;;21.43;;
13366;SDS011;6752;52.612;13.630;2024-01-06T11:22:20;31.93;;;21.73;;
13366;SDS011;6752;52.612;13.630;2024-01-06T11:27:25;32.60;;;21.37;;
13366;SDS011;6752;52.612;13.630;2024-01-06T11:32:31;33.73;;;23.03;;
13366;SDS011;6752;52.612;13.630;2024-01-06T11:37:36;33.07;;;22.47;;
13366;SDS011;6752;52.612;13.630;2024-01-06T11:42:41;32.40;;;21.57;;
13366;SDS011;6752;52.612;13.630;2024-01-06T11:47:47;33.07;;;22.17;;
13366;SDS011;6752;52.612;13.630;2024-01-06T11:52:45;30.83;;;20.73;;
13366;SDS011;6752;52.612;13.630;2024-01-06T11:57:47;31.93;;;21.87;;
13366;SDS011;6752;52.612;13.630;2024-01-06T12:02:53;30.00;;;21.03;;
13366;SDS011;6752;52.612;13.630;2024-01-06T12:07:53;29.52;;;25.90;;
13366;SDS011;6752;52.612;13.630;2024-01-06T12:13:03;27.00;;;20.27;;
13366;SDS011;6752;52.612;13.630;2024-01-06T12:23:23;28.25;;;24.92;;
13366;SDS011;6752;52.612;13.630;2024-01-06T12:28:16;28.00;;;19.03;;
13366;SDS011;6752;52.612;13.630;2024-01-06T12:33:18;26.17;;;18.80;;
13366;SDS011;6752;52.612;13.630;2024-01-06T12:38:21;31.43;;;20.00;;
13366;SDS011;6752;52.612;13.630;2024-01-06T12:43:23;27.33;;;19.60;;
13366;SDS011;6752;52.612;13.630;2024-01-06T12:48:25;27.27;;;19.57;;
13366;SDS011;6752;52.612;13.630;2024-01-06T12:53:28;28.30;;;20.23;;
13366;SDS011;6752;52.612;13.630;2024-01-06T12:58:30;29.05;;;25.40;;
13366;SDS011;6752;52.612;13.630;2024-01-06T13:03:33;26.97;;;19.10;;
13366;SDS011;6752;52.612;13.630;2024-01-06T13:08:35;26.83;;;17.83;;
13366;SDS011;6752;52.612;13.630;2024-01-06T13:13:37;26.03;;;16.93;;
13366;SDS011;6752;52.612;13.630;2024-01-06T13:18:40;22.80;;;16.70;;
13366;SDS011;6752;52.612;13.630;2024-01-06T13:23:42;25.20;;;16.70;;
13366;SDS011;6752;52.612;13.630;2024-01-06T13:28:44;23.40;;;17.17;;
13366;SDS011;6752;52.612;13.630;2024-01-06T13:33:47;26.50;;;17.20;;
13366;SDS011;6752;52.612;13.630;2024-01-06T13:38:49;26.13;;;18.40;;
13366;SDS011;6752;52.612;13.630;2024-01-06T13:43:52;22.27;;;15.93;;
13366;SDS011;6752;52.612;13.630;2024-01-06T13:48:54;22.63;;;15.90;;
13366;SDS011;6752;52.612;13.630;2024-01-06T13:53:56;23.47;;;16.00;;
13366;SDS011;6752;52.612;13.630;2024-01-06T13:58:59;20.57;;;14.43;;
13366;SDS011;6752;52.612;13.630;2024-01-06T14:04:01;20.10;;;13.60;;
13366;SDS011;6752;52.612;13.630;2024-01-06T14:09:03;20.33;;;13.53;;
13366;SDS011;6752;52.612;13.630;2024-01-06T14:14:06;19.80;;;13.20;;
13366;SDS011;6752;52.612;13.630;2024-01-06T14:19:08;20.73;;;14.13;;
13366;SDS011;6752;52.612;13.630;2024-01-06T14:24:11;19.27;;;13.27;;
13366;SDS011;6752;52.612;13.630;2024-01-06T14:29:13;18.77;;;16.42;;
13366;SDS011;6752;52.612;13.630;2024-01-06T14:34:15;16.50;;;11.93;;
13366;SDS011;6752;52.612;13.630;2024-01-06T14:39:18;15.47;;;11.03;;
13366;SDS011;6752;52.612;13.630;2024-01-06T14:44:20;14.20;;;10.10;;
13366;SDS011;6752;52.612;13.630;2024-01-06T14:49:23;13.97;;;9.77;;
13366;SDS011;6752;52.612;13.630;2024-01-06T14:54:25;11.13;;;8.00;;
13366;SDS011;6752;52.612;13.630;2024-01-06T14:59:27;14.77;;;9.13;;
13366;SDS011;6752;52.612;13.630;2024-01-06T15:04:30;12.70;;;8.13;;
13366;SDS011;6752;52.612;13.630;2024-01-06T15:09:32;10.03;;;7.00;;
13366;SDS011;6752;52.612;13.630;2024-01-06T15:14:34;10.45;;;8.65;;
13366;SDS011;6752;52.612;13.630;2024-01-06T15:19:37;10.80;;;7.43;;
13366;SDS011;6752;52.612;13.630;2024-01-06T15:24:40;10.27;;;7.20;;
13366;SDS011;6752;52.612;13.630;2024-01-06T15:29:42;11.53;;;7.33;;
13366;SDS011;6752;52.612;13.630;2024-01-06T15:34:44;11.53;;;7.70;;
13366;SDS011;6752;52.612;13.630;2024-01-06T15:39:47;10.77;;;6.57;;
13366;SDS011;6752;52.612;13.630;2024-01-06T15:44:49;9.40;;;6.57;;
13366;SDS011;6752;52.612;13.630;2024-01-06T15:49:52;8.40;;;6.43;;
13366;SDS011;6752;52.612;13.630;2024-01-06T15:54:55;10.90;;;6.40;;
13366;SDS011;6752;52.612;13.630;2024-01-06T15:59:57;9.73;;;6.20;;
13366;SDS011;6752;52.612;13.630;2024-01-06T16:04:59;8.90;;;6.13;;
13366;SDS011;6752;52.612;13.630;2024-01-06T16:10:02;9.23;;;5.90;;
13366;SDS011;6752;52.612;13.630;2024-01-06T16:15:04;8.67;;;6.37;;
13366;SDS011;6752;52.612;13.630;2024-01-06T16:20:07;8.80;;;6.68;;
13366;SDS011;6752;52.612;13.630;2024-01-06T16:25:09;9.17;;;6.67;;
13366;SDS011;6752;52.612;13.630;2024-01-06T16:30:11;8.82;;;6.72;;
13366;SDS011;6752;52.612;13.630;2024-01-06T16:35:14;8.70;;;5.97;;
13366;SDS011;6752;52.612;13.630;2024-01-06T16:40:16;9.97;;;5.83;;
13366;SDS011;6752;52.612;13.630;2024-01-06T16:45:19;9.10;;;5.43;;
13366;SDS011;6752;52.612;13.630;2024-01-06T16:50:21;7.77;;;5.77;;
13366;SDS011;6752;52.612;13.630;2024-01-06T16:55:27;8.63;;;5.40;;
13366;SDS011;6752;52.612;13.630;2024-01-06T17:00:35;11.40;;;6.00;;
13366;SDS011;6752;52.612;13.630;2024-01-06T17:05:43;8.07;;;5.43;;
13366;SDS011;6752;52.612;13.630;2024-01-06T17:10:48;8.97;;;6.00;;
13366;SDS011;6752;52.612;13.630;2024-01-06T17:15:54;10.13;;;6.10;;
13366;SDS011;6752;52.612;13.630;2024-01-06T17:20:58;9.43;;;5.97;;
13366;SDS011;6752;52.612;13.630;2024-01-06T17:31:44;11.20;;;6.77;;
13366;SDS011;6752;52.612;13.630;2024-01-06T17:36:52;10.73;;;7.10;;
13366;SDS011;6752;52.612;13.630;2024-01-06T17:42:20;9.57;;;6.60;;
13366;SDS011;6752;52.612;13.630;2024-01-06T17:47:07;9.30;;;6.50;;
13366;SDS011;6752;52.612;13.630;2024-01-06T17:52:09;10.27;;;7.10;;
13366;SDS011;6752;52.612;13.630;2024-01-06T17:57:12;10.90;;;7.30;;
13366;SDS011;6752;52.612;13.630;2024-01-06T18:02:14;12.03;;;7.20;;
13366;SDS011;6752;52.612;13.630;2024-01-06T18:07:17;9.67;;;7.03;;
13366;SDS011;6752;52.612;13.630;2024-01-06T18:12:23;9.70;;;7.43;;
13366;SDS011;6752;52.612;13.630;2024-01-06T18:17:25;9.98;;;8.50;;
13366;SDS011;6752;52.612;13.630;2024-01-06T18:22:27;9.63;;;6.63;;
13366;SDS011;6752;52.612;13.630;2024-01-06T18:27:30;10.50;;;6.83;;
13366;SDS011;6752;52.612;13.630;2024-01-06T18:32:32;9.27;;;6.30;;
13366;SDS011;6752;52.612;13.630;2024-01-06T18:37:34;10.33;;;6.37;;
13366;SDS011;6752;52.612;13.630;2024-01-06T18:42:37;10.87;;;6.50;;
13366;SDS011;6752;52.612;13.630;2024-01-06T18:47:42;8.63;;;6.00;;
13366;SDS011;6752;52.612;13.630;2024-01-06T18:52:50;8.50;;;6.50;;
13366;SDS011;6752;52.612;13.630;2024-01-06T18:57:52;9.57;;;6.60;;
13366;SDS011;6752;52.612;13.630;2024-01-06T19:02:55;8.77;;;6.20;;
13366;SDS011;6752;52.612;13.630;2024-01-06T19:07:57;10.00;;;6.20;;
13366;SDS011;6752;52.612;13.630;2024-01-06T19:12:59;9.17;;;6.40;;
13366;SDS011;6752;52.612;13.630;2024-01-06T19:18:02;8.83;;;5.87;;
13366;SDS011;6752;52.612;13.630;2024-01-06T19:23:04;9.40;;;6.43;;
13366;SDS011;6752;52.612;13.630;2024-01-06T19:28:07;9.37;;;5.80;;
13366;SDS011;6752;52.612;13.630;2024-01-06T19:33:09;7.87;;;5.40;;
13366;SDS011;6752;52.612;13.630;2024-01-06T19:38:11;8.30;;;6.53;;
13366;SDS011;6752;52.612;13.630;2024-01-06T19:43:14;7.27;;;4.80;;
13366;SDS011;6752;52.612;13.630;2024-01-06T19:48:16;7.97;;;5.77;;
13366;SDS011;6752;52.612;13.630;2024-01-06T19:53:18;8.97;;;5.50;;
13366;SDS011;6752;52.612;13.630;2024-01-06T19:58:21;8.23;;;5.50;;
13366;SDS011;6752;52.612;13.630;2024-01-06T20:03:23;8.30;;;5.67;;
13366;SDS011;6752;52.612;13.630;2024-01-06T20:08:25;7.57;;;5.40;;
13366;SDS011;6752;52.612;13.630;2024-01-06T20:13:30;6.70;;;4.70;;
13366;SDS011;6752;52.612;13.630;2024-01-06T20:18:32;7.60;;;5.33;;
13366;SDS011;6752;52.612;13.630;2024-01-06T20:23:34;7.43;;;4.37;;
13366;SDS011;6752;52.612;13.630;2024-01-06T20:28:37;7.12;;;5.40;;
13366;SDS011;6752;52.612;13.630;2024-01-06T20:33:39;6.70;;;4.67;;
13366;SDS011;6752;52.612;13.630;2024-01-06T20:38:42;7.07;;;3.80;;
13366;SDS011;6752;52.612;13.630;2024-01-06T20:43:44;5.80;;;4.13;;
13366;SDS011;6752;52.612;13.630;2024-01-06T20:48:46;6.03;;;4.22;;
13366;SDS011;6752;52.612;13.630;2024-01-06T20:53:49;6.37;;;3.60;;
13366;SDS011;6752;52.612;13.630;2024-01-06T20:58:51;7.07;;;3.50;;
13366;SDS011;6752;52.612;13.630;2024-01-06T21:03:53;4.70;;;3.20;;
13366;SDS011;6752;52.612;13.630;2024-01-06T21:08:56;6.10;;;3.40;;
13366;SDS011;6752;52.612;13.630;2024-01-06T21:13:58;5.47;;;3.40;;
13366;SDS011;6752;52.612;13.630;2024-01-06T21:19:00;6.07;;;3.17;;
13366;SDS011;6752;52.612;13.630;2024-01-06T21:24:03;6.47;;;3.60;;
13366;SDS011;6752;52.612;13.630;2024-01-06T21:29:05;5.73;;;3.20;;
13366;SDS011;6752;52.612;13.630;2024-01-06T21:34:07;4.83;;;3.00;;
13366;SDS011;6752;52.612;13.630;2024-01-06T21:39:10;5.10;;;3.00;;
13366;SDS011;6752;52.612;13.630;2024-01-06T21:44:12;5.28;;;3.65;;
13366;SDS011;6752;52.612;13.630;2024-01-06T21:49:15;5.37;;;2.90;;
13366;SDS011;6752;52.612;13.630;2024-01-06T21:54:17;5.57;;;3.65;;
13366;SDS011;6752;52.612;13.630;2024-01-06T21:59:19;4.80;;;3.10;;
13366;SDS011;6752;52.612;13.630;2024-01-06T22:04:22;5.90;;;3.03;;
13366;SDS011;6752;52.612;13.630;2024-01-06T22:09:24;5.27;;;3.03;;
13366;SDS011;6752;52.612;13.630;2024-01-06T22:14:26;5.05;;;3.10;;
13366;SDS011;6752;52.612;13.630;2024-01-06T22:19:29;4.97;;;3.47;;
13366;SDS011;6752;52.612;13.630;2024-01-06T22:24:31;4.37;;;2.70;;
13366;SDS011;6752;52.612;13.630;2024-01-06T22:29:33;5.17;;;3.13;;
13366;SDS011;6752;52.612;13.630;2024-01-06T22:34:36;5.33;;;3.13;;
13366;SDS011;6752;52.612;13.630;2024-01-06T22:39:40;6.60;;;3.17;;
13366;SDS011;6752;52.612;13.630;2024-01-06T22:44:41;4.20;;;2.80;;
13366;SDS011;6752;52.612;13.630;2024-01-06T22:49:43;5.40;;;2.83;;
13366;SDS011;6752;52.612;13.630;2024-01-06T22:54:45;4.80;;;3.20;;
13366;SDS011;6752;52.612;13.630;2024-01-06T22:59:48;5.00;;;3.20;;
13366;SDS011;6752;52.612;13.630;2024-01-06T23:04:50;4.87;;;3.23;;
13366;SDS011;6752;52.612;13.630;2024-01-06T23:09:52;4.30;;;2.70;;
13366;SDS011;6752;52.612;13.630;2024-01-06T23:14:55;4.83;;;3.20;;
13366;SDS011;6752;52.612;13.630;2024-01-06T23:19:57;5.00;;;2.83;;
13366;SDS011;6752;52.612;13.630;2024-01-06T23:24:59;6.10;;;3.20;;
13366;SDS011;6752;52.612;13.630;2024-01-06T23:30:02;6.03;;;3.40;;
13366;SDS011;6752;52.612;13.630;2024-01-06T23:35:04;7.07;;;3.90;;
13366;SDS011;6752;52.612;13.630;2024-01-06T23:40:07;5.83;;;3.63;;
13366;SDS011;6752;52.612;13.630;2024-01-06T23:45:09;7.37;;;4.10;;
13366;SDS011;6752;52.612;13.630;2024-01-06T23:50:11;5.57;;;3.93;;
13366;SDS011;6752;52.612;13.630;2024-01-06T23:55:14;6.40;;;4.03;;
